Shenley AV, United Kingdom
Current Conditions -  °F | °C
As of 11:50 PM on Wednesday 28 Jan 2015 (Local Time) from EGWU Reporting Station
Clear Clear  
Wind Chill: -4°   Ceiling: Unl
Heat Index:   Visibility: 6mi
Dew Point: -1°   Wind: 17mph
Humidity: 81%   Direction: 260°W
Pressure: 29.47"   Gusts: NA
Location:  51.69°N, 0.28°W
Report Text: EGWU 282350Z AUTO 26015KT 9999 // NCD 02/M01 Q0998
Loading
Personal Weather Stations






























Interactive Weather Map New forecast layout! Learn more

10-Day Weather Forecast

Advertisements
Track Severe Weather on mobile